Monroe, Washington
Current Conditions -  °F | °C
As of 4:53 AM on Monday 20 Oct 2014 (Local Time) from KPAE Reporting Station
Light Rain Light Rain  
Wind Chill: 58°   Ceiling: 8500
Heat Index: 58°   Visibility: 8mi
Dew Point: 55°   Wind: 14mph
Humidity: 90%   Direction: 160°SSE
Pressure: 29.7"   Gusts: 23mph
Location:  47.86°N, 121.97°W
Report Text: KPAE 201153Z AUTO 16012G20KT 8SM -RA FEW016 SCT039 OVC085 14/13 A2970 RMK AO2 SLP053 P0005 60016 70016 T01440128 10161 20144 56007
Loading
Personal Weather Stations






























Interactive Weather Map
Tropical Storm Tracking
New forecast layout! Learn more

10-Day Weather Forecast

Advertisements
Track Severe Weather on mobile